createdAt,value
2023-05-18T00:04:24.254Z,21.80
2023-05-18T00:09:27.640Z,21.70
2023-05-18T00:14:31.077Z,21.70
2023-05-18T00:19:35.282Z,21.70
2023-05-18T00:24:38.147Z,21.60
2023-05-18T00:29:41.076Z,21.60
2023-05-18T00:34:45.257Z,21.60
2023-05-18T00:39:48.300Z,21.60
2023-05-18T00:44:51.182Z,21.60
2023-05-18T00:49:56.473Z,21.60
2023-05-18T00:55:00.353Z,21.50
2023-05-18T01:00:07.333Z,21.50
2023-05-18T01:05:12.286Z,21.50
2023-05-18T01:10:18.207Z,21.50
2023-05-18T01:15:26.502Z,21.50
2023-05-18T01:20:37.818Z,21.50
2023-05-18T01:25:51.200Z,21.40
2023-05-18T01:30:56.377Z,21.40
2023-05-18T01:35:59.276Z,21.40
2023-05-18T01:41:14.012Z,21.40
2023-05-18T01:46:26.290Z,21.40
2023-05-18T01:51:34.691Z,21.40
2023-05-18T01:56:38.629Z,21.40
2023-05-18T02:01:43.037Z,21.40
2023-05-18T02:06:45.970Z,21.30
2023-05-18T02:11:49.096Z,21.30
2023-05-18T02:16:53.819Z,21.30
2023-05-18T02:21:56.724Z,21.30
2023-05-18T02:26:59.660Z,21.30
2023-05-18T02:32:04.014Z,21.30
2023-05-18T02:37:06.879Z,21.30
2023-05-18T02:42:09.768Z,21.30
2023-05-18T02:47:14.050Z,21.20
2023-05-18T02:52:16.954Z,21.20
2023-05-18T02:57:19.855Z,21.20
2023-05-18T03:02:24.085Z,21.20
2023-05-18T03:07:27.721Z,21.20
2023-05-18T03:12:30.605Z,21.20
2023-05-18T03:17:34.905Z,21.20
2023-05-18T03:22:38.066Z,21.10
2023-05-18T03:27:41.065Z,21.10
2023-05-18T03:32:45.506Z,21.10
2023-05-18T03:37:48.399Z,21.10
2023-05-18T03:42:51.276Z,21.10
2023-05-18T03:47:55.534Z,21.10
2023-05-18T03:52:59.366Z,21.10
2023-05-18T03:58:03.357Z,21.10
2023-05-18T04:03:07.647Z,21.10
2023-05-18T04:08:14.336Z,21.10
2023-05-18T04:13:17.335Z,21.10
2023-05-18T04:18:21.734Z,21.20
2023-05-18T04:23:24.620Z,21.40
2023-05-18T04:28:28.717Z,21.60
2023-05-18T04:33:34.171Z,21.80
2023-05-18T04:38:37.081Z,21.90
2023-05-18T04:43:39.977Z,22.10
2023-05-18T04:48:44.298Z,22.20
2023-05-18T04:53:47.182Z,22.20
2023-05-18T04:58:50.544Z,22.30
2023-05-18T05:03:55.574Z,22.20
2023-05-18T05:08:59.338Z,22.20
2023-05-18T05:14:03.059Z,22.20
2023-05-18T05:19:07.678Z,22.30
2023-05-18T05:24:10.800Z,22.40
2023-05-18T05:29:13.656Z,22.60
2023-05-18T05:34:17.851Z,22.70
2023-05-18T05:39:20.784Z,22.70
2023-05-18T05:44:23.823Z,22.90
2023-05-18T05:49:28.067Z,23.00
2023-05-18T05:54:31.265Z,23.10
2023-05-18T05:59:34.149Z,23.10
2023-05-18T06:04:38.413Z,23.10
2023-05-18T06:09:41.428Z,23.20
2023-05-18T06:14:44.338Z,23.30
2023-05-18T06:19:48.552Z,23.40
2023-05-18T06:24:51.417Z,23.40
2023-05-18T06:29:54.294Z,23.50
2023-05-18T06:34:58.536Z,23.50
2023-05-18T06:40:01.388Z,23.50
2023-05-18T06:45:04.834Z,23.60
2023-05-18T06:50:10.193Z,23.50
2023-05-18T06:55:13.462Z,23.60
2023-05-18T07:00:17.118Z,23.60
2023-05-18T07:05:21.425Z,23.60
2023-05-18T07:10:24.484Z,23.60
2023-05-18T07:15:27.437Z,23.60
2023-05-18T07:20:31.771Z,23.60
2023-05-18T07:25:34.966Z,23.60
2023-05-18T07:30:37.895Z,23.60
2023-05-18T07:35:42.173Z,23.60
2023-05-18T07:40:45.018Z,23.60
2023-05-18T07:45:47.953Z,23.50
2023-05-18T07:50:52.380Z,23.50
2023-05-18T07:55:55.303Z,23.50
2023-05-18T08:00:58.631Z,23.50
2023-05-18T08:06:03.075Z,23.40
2023-05-18T08:11:06.396Z,23.30
2023-05-18T08:16:12.271Z,23.20
2023-05-18T08:21:18.020Z,22.90
2023-05-18T08:26:22.062Z,22.80
2023-05-18T08:31:25.000Z,22.70
2023-05-18T08:36:29.247Z,22.70
2023-05-18T08:41:37.005Z,22.70
2023-05-18T08:46:42.647Z,22.80
2023-05-18T08:51:48.847Z,22.70
2023-05-18T08:56:53.623Z,22.70
2023-05-18T09:01:56.783Z,22.70
2023-05-18T09:07:03.551Z,22.70
2023-05-18T09:12:07.645Z,22.70
2023-05-18T09:17:10.713Z,22.60
2023-05-18T09:22:15.500Z,22.60
2023-05-18T09:27:18.561Z,22.60
2023-05-18T09:32:21.698Z,22.60
2023-05-18T09:37:25.956Z,22.60
2023-05-18T09:42:33.339Z,22.60
2023-05-18T09:47:36.337Z,22.60
2023-05-18T09:52:44.576Z,22.50
2023-05-18T09:57:48.853Z,22.50
2023-05-18T10:02:52.668Z,22.50
2023-05-18T10:07:58.746Z,22.40
2023-05-18T10:13:02.997Z,22.40
2023-05-18T10:18:08.851Z,22.40
2023-05-18T10:23:13.754Z,22.40
2023-05-18T10:28:24.535Z,22.40
2023-05-18T10:33:29.918Z,22.40
2023-05-18T10:38:38.763Z,22.40
2023-05-18T10:43:42.783Z,22.40
2023-05-18T10:48:52.365Z,22.40
2023-05-18T10:54:07.571Z,22.40
2023-05-18T10:59:12.027Z,22.30
2023-05-18T11:04:15.197Z,22.30
2023-05-18T11:09:25.030Z,22.30
2023-05-18T11:14:29.162Z,22.30
2023-05-18T11:19:32.579Z,22.40
2023-05-18T11:24:38.037Z,22.40
2023-05-18T11:29:44.952Z,22.40
2023-05-18T11:34:52.346Z,22.30
2023-05-18T11:40:00.185Z,22.30
2023-05-18T11:45:09.051Z,22.30
2023-05-18T11:50:13.068Z,22.30
2023-05-18T11:55:19.016Z,22.30
2023-05-18T12:00:22.564Z,22.20
2023-05-18T12:05:25.599Z,22.20
2023-05-18T12:10:30.515Z,22.20
2023-05-18T12:15:34.453Z,22.20
2023-05-18T12:20:41.362Z,22.10
2023-05-18T12:25:45.825Z,22.10
2023-05-18T12:30:48.735Z,22.10
2023-05-18T12:35:51.657Z,22.10
2023-05-18T12:40:57.215Z,22.10
2023-05-18T12:46:02.504Z,22.10
2023-05-18T12:51:05.942Z,22.10
2023-05-18T12:56:11.641Z,22.10
2023-05-18T13:01:16.128Z,22.00
2023-05-18T13:06:19.866Z,22.00
2023-05-18T13:11:27.717Z,21.90
2023-05-18T13:16:31.190Z,21.90
2023-05-18T13:21:34.388Z,22.00
2023-05-18T13:26:38.971Z,21.90
2023-05-18T13:31:41.954Z,21.90
2023-05-18T13:36:44.805Z,21.90
2023-05-18T13:41:49.014Z,21.90
2023-05-18T13:46:51.886Z,21.90
2023-05-18T13:51:54.762Z,21.90
2023-05-18T13:56:59.021Z,21.90
2023-05-18T14:02:02.192Z,21.90
2023-05-18T14:07:05.244Z,21.90
2023-05-18T14:12:11.393Z,21.90
2023-05-18T14:17:14.623Z,21.90
2023-05-18T14:22:18.778Z,21.90
2023-05-18T14:27:23.047Z,21.90
2023-05-18T14:32:26.195Z,21.80
2023-05-18T14:37:29.242Z,21.90
2023-05-18T14:42:33.456Z,21.90
2023-05-18T14:47:36.372Z,21.90
2023-05-18T14:52:39.625Z,21.90
2023-05-18T14:57:44.341Z,21.90
2023-05-18T15:02:47.282Z,21.90
2023-05-18T15:07:50.259Z,21.90
2023-05-18T15:12:54.518Z,21.90
2023-05-18T15:17:57.539Z,21.90
2023-05-18T15:23:01.019Z,22.10
2023-05-18T15:28:05.822Z,22.40
2023-05-18T15:33:08.755Z,22.90
2023-05-18T15:38:11.718Z,23.40
2023-05-18T15:43:15.991Z,23.90
2023-05-18T15:48:18.844Z,24.40
2023-05-18T15:53:21.799Z,24.80
2023-05-18T15:58:26.579Z,25.10
2023-05-18T16:03:30.087Z,25.30
2023-05-18T16:08:33.202Z,25.40
2023-05-18T16:13:37.479Z,25.40
2023-05-18T16:18:40.410Z,25.70
2023-05-18T16:23:43.374Z,26.00
2023-05-18T16:28:47.582Z,26.20
2023-05-18T16:33:50.580Z,26.40
2023-05-18T16:38:53.548Z,26.50
2023-05-18T16:43:57.789Z,26.30
2023-05-18T16:49:00.666Z,25.90
2023-05-18T16:54:03.555Z,25.40
2023-05-18T16:59:07.813Z,25.40
2023-05-18T17:04:11.023Z,25.60
2023-05-18T17:09:15.777Z,25.30
2023-05-18T17:14:19.986Z,25.20
2023-05-18T17:19:23.023Z,25.10
2023-05-18T17:24:25.963Z,24.90
2023-05-18T17:29:30.401Z,24.80
2023-05-18T17:34:33.278Z,24.60
2023-05-18T17:39:36.206Z,24.50
2023-05-18T17:44:40.414Z,24.40
2023-05-18T17:49:43.424Z,24.20
2023-05-18T17:54:46.316Z,24.00
2023-05-18T17:59:50.837Z,23.90
2023-05-18T18:04:53.718Z,23.80
2023-05-18T18:09:56.684Z,23.80
2023-05-18T18:15:01.010Z,23.70
2023-05-18T18:20:05.682Z,23.60
2023-05-18T18:25:09.196Z,23.40
2023-05-18T18:30:15.215Z,23.40
2023-05-18T18:35:18.404Z,23.20
2023-05-18T18:40:21.253Z,23.10
2023-05-18T18:45:26.513Z,23.00
2023-05-18T18:50:30.055Z,22.70
2023-05-18T18:55:33.301Z,22.70
2023-05-18T19:00:37.890Z,22.70
2023-05-18T19:05:40.795Z,22.60
2023-05-18T19:10:44.458Z,22.40
2023-05-18T19:15:49.270Z,22.30
2023-05-18T19:20:52.197Z,22.30
2023-05-18T19:25:56.363Z,22.20
2023-05-18T19:31:02.435Z,22.20
2023-05-18T19:36:05.883Z,22.10
2023-05-18T19:41:09.373Z,22.00
2023-05-18T19:46:13.755Z,22.10
2023-05-18T19:51:16.626Z,22.10
2023-05-18T19:56:19.530Z,22.10
2023-05-18T20:01:24.729Z,22.00
2023-05-18T20:06:28.227Z,21.90
2023-05-18T20:11:31.241Z,22.00
2023-05-18T20:16:39.263Z,22.20
2023-05-18T20:21:42.255Z,22.40
2023-05-18T20:26:45.124Z,22.60
2023-05-18T20:31:49.644Z,22.70
2023-05-18T20:36:52.575Z,22.80
2023-05-18T20:41:55.510Z,22.90
2023-05-18T20:47:01.171Z,22.90
2023-05-18T20:52:04.119Z,23.00
2023-05-18T20:57:07.111Z,23.00
2023-05-18T21:02:11.385Z,23.00
2023-05-18T21:07:16.615Z,22.90
2023-05-18T21:12:19.550Z,22.90
2023-05-18T21:17:23.742Z,22.80
2023-05-18T21:22:26.658Z,22.80
2023-05-18T21:27:29.544Z,22.80
2023-05-18T21:32:33.978Z,22.80
2023-05-18T21:37:37.388Z,22.80
2023-05-18T21:42:44.941Z,22.80
2023-05-18T21:47:50.630Z,22.80
2023-05-18T21:52:53.585Z,22.70
2023-05-18T21:57:56.467Z,22.70
2023-05-18T22:03:00.792Z,22.70
2023-05-18T22:08:03.757Z,22.70
2023-05-18T22:13:06.741Z,22.70
2023-05-18T22:18:11.562Z,22.70
2023-05-18T22:23:14.472Z,22.60
2023-05-18T22:28:21.393Z,22.60
2023-05-18T22:33:25.617Z,22.60
2023-05-18T22:38:28.500Z,22.50
2023-05-18T22:43:31.374Z,22.50
2023-05-18T22:48:36.059Z,22.50
2023-05-18T22:53:39.054Z,22.40
2023-05-18T22:58:41.915Z,22.40
2023-05-18T23:03:46.117Z,22.40
2023-05-18T23:08:49.060Z,22.40
2023-05-18T23:13:52.252Z,22.30
2023-05-18T23:18:58.726Z,22.30
2023-05-18T23:24:01.787Z,22.30
2023-05-18T23:29:04.915Z,22.30
2023-05-18T23:34:09.977Z,22.20
2023-05-18T23:39:13.425Z,22.20
2023-05-18T23:44:16.828Z,22.20
2023-05-18T23:49:21.546Z,22.10
2023-05-18T23:54:24.897Z,22.10
2023-05-18T23:59:28.218Z,22.10
